sensor_id;sensor_type;location;lat;lon;timestamp;P1;durP1;ratioP1;P2;durP2;ratioP2
60048;SDS011;45925;45.544;6.756;2022-10-30T00:03:09;0.03;;;0.03;;
60048;SDS011;45925;45.544;6.756;2022-10-30T00:08:14;0.20;;;0.20;;
60048;SDS011;45925;45.544;6.756;2022-10-30T00:13:16;0.10;;;0.10;;
60048;SDS011;45925;45.544;6.756;2022-10-30T00:18:17;0.43;;;0.20;;
60048;SDS011;45925;45.544;6.756;2022-10-30T00:23:19;0.03;;;0.03;;
60048;SDS011;45925;45.544;6.756;2022-10-30T00:28:19;0.00;;;0.00;;
60048;SDS011;45925;45.544;6.756;2022-10-30T00:33:20;0.32;;;0.10;;
60048;SDS011;45925;45.544;6.756;2022-10-30T00:38:20;5.93;;;0.70;;
60048;SDS011;45925;45.544;6.756;2022-10-30T00:43:35;0.10;;;0.10;;
60048;SDS011;45925;45.544;6.756;2022-10-30T00:48:37;0.30;;;0.30;;
60048;SDS011;45925;45.544;6.756;2022-10-30T00:53:37;0.10;;;0.10;;
60048;SDS011;45925;45.544;6.756;2022-10-30T00:58:41;0.00;;;0.00;;
60048;SDS011;45925;45.544;6.756;2022-10-30T01:03:45;0.03;;;0.03;;
60048;SDS011;45925;45.544;6.756;2022-10-30T01:08:49;0.17;;;0.17;;
60048;SDS011;45925;45.544;6.756;2022-10-30T01:13:51;0.00;;;0.00;;
60048;SDS011;45925;45.544;6.756;2022-10-30T01:29:55;0.10;;;0.10;;
60048;SDS011;45925;45.544;6.756;2022-10-30T01:35:13;0.00;;;0.00;;
60048;SDS011;45925;45.544;6.756;2022-10-30T01:40:21;0.10;;;0.10;;
60048;SDS011;45925;45.544;6.756;2022-10-30T01:56:14;0.10;;;0.10;;
60048;SDS011;45925;45.544;6.756;2022-10-30T02:01:25;0.00;;;0.00;;
60048;SDS011;45925;45.544;6.756;2022-10-30T02:06:27;0.00;;;0.00;;
60048;SDS011;45925;45.544;6.756;2022-10-30T02:11:28;0.10;;;0.10;;
60048;SDS011;45925;45.544;6.756;2022-10-30T02:16:32;0.10;;;0.10;;
60048;SDS011;45925;45.544;6.756;2022-10-30T02:21:37;0.05;;;0.05;;
60048;SDS011;45925;45.544;6.756;2022-10-30T02:26:37;0.10;;;0.10;;
60048;SDS011;45925;45.544;6.756;2022-10-30T02:31:38;0.00;;;0.00;;
60048;SDS011;45925;45.544;6.756;2022-10-30T02:36:38;0.10;;;0.10;;
60048;SDS011;45925;45.544;6.756;2022-10-30T02:41:39;0.10;;;0.10;;
60048;SDS011;45925;45.544;6.756;2022-10-30T02:46:39;0.00;;;0.00;;
60048;SDS011;45925;45.544;6.756;2022-10-30T02:51:40;0.05;;;0.05;;
60048;SDS011;45925;45.544;6.756;2022-10-30T02:56:41;0.00;;;0.00;;
60048;SDS011;45925;45.544;6.756;2022-10-30T03:01:42;0.98;;;0.55;;
60048;SDS011;45925;45.544;6.756;2022-10-30T03:06:42;1.27;;;1.25;;
60048;SDS011;45925;45.544;6.756;2022-10-30T03:11:43;0.25;;;0.25;;
60048;SDS011;45925;45.544;6.756;2022-10-30T03:16:43;0.00;;;0.00;;
60048;SDS011;45925;45.544;6.756;2022-10-30T03:21:44;0.45;;;0.45;;
60048;SDS011;45925;45.544;6.756;2022-10-30T03:26:45;0.10;;;0.10;;
60048;SDS011;45925;45.544;6.756;2022-10-30T03:31:46;0.32;;;0.32;;
60048;SDS011;45925;45.544;6.756;2022-10-30T03:36:46;0.00;;;0.00;;
60048;SDS011;45925;45.544;6.756;2022-10-30T03:41:47;0.13;;;0.13;;
60048;SDS011;45925;45.544;6.756;2022-10-30T03:46:48;0.00;;;0.00;;
60048;SDS011;45925;45.544;6.756;2022-10-30T03:51:48;0.10;;;0.10;;
60048;SDS011;45925;45.544;6.756;2022-10-30T03:56:49;0.13;;;0.10;;
60048;SDS011;45925;45.544;6.756;2022-10-30T04:01:49;0.90;;;0.70;;
60048;SDS011;45925;45.544;6.756;2022-10-30T04:06:50;0.10;;;0.10;;
60048;SDS011;45925;45.544;6.756;2022-10-30T04:11:50;1.65;;;1.45;;
60048;SDS011;45925;45.544;6.756;2022-10-30T04:16:51;0.38;;;0.38;;
60048;SDS011;45925;45.544;6.756;2022-10-30T04:21:51;0.10;;;0.10;;
60048;SDS011;45925;45.544;6.756;2022-10-30T04:26:52;0.00;;;0.00;;
60048;SDS011;45925;45.544;6.756;2022-10-30T04:31:52;0.10;;;0.10;;
60048;SDS011;45925;45.544;6.756;2022-10-30T04:36:53;0.10;;;0.10;;
60048;SDS011;45925;45.544;6.756;2022-10-30T04:41:54;0.03;;;0.03;;
60048;SDS011;45925;45.544;6.756;2022-10-30T04:46:55;0.03;;;0.03;;
60048;SDS011;45925;45.544;6.756;2022-10-30T04:51:55;0.40;;;0.40;;
60048;SDS011;45925;45.544;6.756;2022-10-30T04:56:56;0.00;;;0.00;;
60048;SDS011;45925;45.544;6.756;2022-10-30T05:01:56;0.00;;;0.00;;
60048;SDS011;45925;45.544;6.756;2022-10-30T05:06:57;0.10;;;0.10;;
60048;SDS011;45925;45.544;6.756;2022-10-30T05:11:57;0.03;;;0.03;;
60048;SDS011;45925;45.544;6.756;2022-10-30T05:16:58;0.10;;;0.10;;
60048;SDS011;45925;45.544;6.756;2022-10-30T05:21:59;0.10;;;0.10;;
60048;SDS011;45925;45.544;6.756;2022-10-30T05:27:00;0.13;;;0.13;;
60048;SDS011;45925;45.544;6.756;2022-10-30T05:32:00;0.00;;;0.00;;
60048;SDS011;45925;45.544;6.756;2022-10-30T05:37:01;0.00;;;0.00;;
60048;SDS011;45925;45.544;6.756;2022-10-30T05:42:01;0.08;;;0.08;;
60048;SDS011;45925;45.544;6.756;2022-10-30T05:47:02;0.00;;;0.00;;
60048;SDS011;45925;45.544;6.756;2022-10-30T05:52:03;0.00;;;0.00;;
60048;SDS011;45925;45.544;6.756;2022-10-30T05:57:04;0.00;;;0.00;;
60048;SDS011;45925;45.544;6.756;2022-10-30T06:02:05;0.15;;;0.15;;
60048;SDS011;45925;45.544;6.756;2022-10-30T06:07:05;0.00;;;0.00;;
60048;SDS011;45925;45.544;6.756;2022-10-30T06:12:06;0.10;;;0.10;;
60048;SDS011;45925;45.544;6.756;2022-10-30T06:17:06;0.10;;;0.10;;
60048;SDS011;45925;45.544;6.756;2022-10-30T06:22:07;0.00;;;0.00;;
60048;SDS011;45925;45.544;6.756;2022-10-30T06:27:07;0.10;;;0.10;;
60048;SDS011;45925;45.544;6.756;2022-10-30T06:32:08;0.08;;;0.08;;
60048;SDS011;45925;45.544;6.756;2022-10-30T06:37:09;0.10;;;0.10;;
60048;SDS011;45925;45.544;6.756;2022-10-30T06:42:09;0.00;;;0.00;;
60048;SDS011;45925;45.544;6.756;2022-10-30T06:47:10;0.00;;;0.00;;
60048;SDS011;45925;45.544;6.756;2022-10-30T06:52:10;0.10;;;0.10;;
60048;SDS011;45925;45.544;6.756;2022-10-30T06:57:12;0.38;;;0.38;;
60048;SDS011;45925;45.544;6.756;2022-10-30T07:02:13;0.17;;;0.17;;
60048;SDS011;45925;45.544;6.756;2022-10-30T07:07:14;0.05;;;0.05;;
60048;SDS011;45925;45.544;6.756;2022-10-30T07:12:14;0.85;;;0.30;;
60048;SDS011;45925;45.544;6.756;2022-10-30T07:17:15;0.10;;;0.10;;
60048;SDS011;45925;45.544;6.756;2022-10-30T07:22:15;0.00;;;0.00;;
60048;SDS011;45925;45.544;6.756;2022-10-30T07:27:16;0.10;;;0.10;;
60048;SDS011;45925;45.544;6.756;2022-10-30T07:32:17;0.40;;;0.40;;
60048;SDS011;45925;45.544;6.756;2022-10-30T07:37:17;0.95;;;0.93;;
60048;SDS011;45925;45.544;6.756;2022-10-30T07:42:18;1.10;;;0.60;;
60048;SDS011;45925;45.544;6.756;2022-10-30T07:47:18;0.75;;;0.75;;
60048;SDS011;45925;45.544;6.756;2022-10-30T07:52:19;0.35;;;0.35;;
60048;SDS011;45925;45.544;6.756;2022-10-30T07:57:20;0.30;;;0.30;;
60048;SDS011;45925;45.544;6.756;2022-10-30T08:02:21;0.00;;;0.00;;
60048;SDS011;45925;45.544;6.756;2022-10-30T08:07:22;0.00;;;0.00;;
60048;SDS011;45925;45.544;6.756;2022-10-30T08:12:22;0.10;;;0.10;;
60048;SDS011;45925;45.544;6.756;2022-10-30T08:17:24;0.10;;;0.10;;
60048;SDS011;45925;45.544;6.756;2022-10-30T08:22:24;0.00;;;0.00;;
60048;SDS011;45925;45.544;6.756;2022-10-30T08:27:25;0.20;;;0.20;;
60048;SDS011;45925;45.544;6.756;2022-10-30T08:32:25;0.65;;;0.30;;
60048;SDS011;45925;45.544;6.756;2022-10-30T08:37:26;1.00;;;1.00;;
60048;SDS011;45925;45.544;6.756;2022-10-30T08:42:26;0.00;;;0.00;;
60048;SDS011;45925;45.544;6.756;2022-10-30T08:47:27;0.10;;;0.10;;
60048;SDS011;45925;45.544;6.756;2022-10-30T08:52:28;0.20;;;0.10;;
60048;SDS011;45925;45.544;6.756;2022-10-30T08:57:28;0.10;;;0.10;;
60048;SDS011;45925;45.544;6.756;2022-10-30T09:02:35;0.10;;;0.10;;
60048;SDS011;45925;45.544;6.756;2022-10-30T09:07:38;0.20;;;0.20;;
60048;SDS011;45925;45.544;6.756;2022-10-30T09:12:39;0.10;;;0.10;;
60048;SDS011;45925;45.544;6.756;2022-10-30T09:17:39;1.65;;;0.10;;
60048;SDS011;45925;45.544;6.756;2022-10-30T09:22:40;0.00;;;0.00;;
60048;SDS011;45925;45.544;6.756;2022-10-30T09:27:41;0.20;;;0.20;;
60048;SDS011;45925;45.544;6.756;2022-10-30T09:32:41;0.08;;;0.08;;
60048;SDS011;45925;45.544;6.756;2022-10-30T09:37:42;0.00;;;0.00;;
60048;SDS011;45925;45.544;6.756;2022-10-30T09:42:46;0.00;;;0.00;;
60048;SDS011;45925;45.544;6.756;2022-10-30T10:09:21;0.00;;;0.00;;
60048;SDS011;45925;45.544;6.756;2022-10-30T10:14:28;0.00;;;0.00;;
60048;SDS011;45925;45.544;6.756;2022-10-30T10:24:38;0.00;;;0.00;;
60048;SDS011;45925;45.544;6.756;2022-10-30T10:51:14;0.00;;;0.00;;
60048;SDS011;45925;45.544;6.756;2022-10-30T10:56:20;0.00;;;0.00;;
60048;SDS011;45925;45.544;6.756;2022-10-30T11:01:34;0.10;;;0.10;;
60048;SDS011;45925;45.544;6.756;2022-10-30T11:06:40;0.03;;;0.03;;
60048;SDS011;45925;45.544;6.756;2022-10-30T11:11:49;0.00;;;0.00;;
60048;SDS011;45925;45.544;6.756;2022-10-30T11:17:00;0.00;;;0.00;;
60048;SDS011;45925;45.544;6.756;2022-10-30T11:22:32;0.20;;;0.20;;
60048;SDS011;45925;45.544;6.756;2022-10-30T11:27:36;0.05;;;0.05;;
60048;SDS011;45925;45.544;6.756;2022-10-30T11:32:36;0.17;;;0.17;;
60048;SDS011;45925;45.544;6.756;2022-10-30T11:37:38;0.07;;;0.07;;
60048;SDS011;45925;45.544;6.756;2022-10-30T11:42:41;0.20;;;0.20;;
60048;SDS011;45925;45.544;6.756;2022-10-30T11:47:47;0.57;;;0.38;;
60048;SDS011;45925;45.544;6.756;2022-10-30T11:52:49;0.10;;;0.10;;
60048;SDS011;45925;45.544;6.756;2022-10-30T11:57:55;0.20;;;0.20;;
60048;SDS011;45925;45.544;6.756;2022-10-30T12:02:57;0.05;;;0.05;;
60048;SDS011;45925;45.544;6.756;2022-10-30T12:13:05;0.00;;;0.00;;
60048;SDS011;45925;45.544;6.756;2022-10-30T12:18:18;0.08;;;0.08;;
60048;SDS011;45925;45.544;6.756;2022-10-30T12:23:22;0.38;;;0.15;;
60048;SDS011;45925;45.544;6.756;2022-10-30T12:28:26;0.75;;;0.50;;
60048;SDS011;45925;45.544;6.756;2022-10-30T12:33:37;5.63;;;1.38;;
60048;SDS011;45925;45.544;6.756;2022-10-30T12:43:51;1.00;;;0.95;;
60048;SDS011;45925;45.544;6.756;2022-10-30T12:49:13;1.88;;;1.35;;
60048;SDS011;45925;45.544;6.756;2022-10-30T12:54:24;1.17;;;1.08;;
60048;SDS011;45925;45.544;6.756;2022-10-30T13:04:48;1.25;;;1.00;;
60048;SDS011;45925;45.544;6.756;2022-10-30T13:15:32;0.20;;;0.15;;
60048;SDS011;45925;45.544;6.756;2022-10-30T13:20:36;0.00;;;0.00;;
60048;SDS011;45925;45.544;6.756;2022-10-30T13:46:36;0.10;;;0.03;;
60048;SDS011;45925;45.544;6.756;2022-10-30T13:57:29;0.00;;;0.00;;
60048;SDS011;45925;45.544;6.756;2022-10-30T14:08:05;0.00;;;0.00;;
60048;SDS011;45925;45.544;6.756;2022-10-30T14:13:27;0.08;;;0.08;;
60048;SDS011;45925;45.544;6.756;2022-10-30T14:18:43;0.52;;;0.43;;
60048;SDS011;45925;45.544;6.756;2022-10-30T14:34:40;0.08;;;0.08;;
60048;SDS011;45925;45.544;6.756;2022-10-30T14:39:41;0.00;;;0.00;;
60048;SDS011;45925;45.544;6.756;2022-10-30T14:44:56;0.00;;;0.00;;
60048;SDS011;45925;45.544;6.756;2022-10-30T14:50:20;0.10;;;0.10;;
60048;SDS011;45925;45.544;6.756;2022-10-30T14:55:27;0.75;;;0.75;;
60048;SDS011;45925;45.544;6.756;2022-10-30T15:10:46;0.20;;;0.20;;
60048;SDS011;45925;45.544;6.756;2022-10-30T15:16:11;0.20;;;0.20;;
60048;SDS011;45925;45.544;6.756;2022-10-30T15:21:17;4.95;;;1.65;;
60048;SDS011;45925;45.544;6.756;2022-10-30T15:26:25;3.05;;;1.27;;
60048;SDS011;45925;45.544;6.756;2022-10-30T15:31:32;4.65;;;2.10;;
60048;SDS011;45925;45.544;6.756;2022-10-30T15:36:33;8.20;;;1.20;;
60048;SDS011;45925;45.544;6.756;2022-10-30T15:41:46;2.38;;;1.70;;
60048;SDS011;45925;45.544;6.756;2022-10-30T15:46:51;1.75;;;1.60;;
60048;SDS011;45925;45.544;6.756;2022-10-30T15:51:53;6.15;;;2.78;;
60048;SDS011;45925;45.544;6.756;2022-10-30T15:56:55;9.23;;;4.20;;
60048;SDS011;45925;45.544;6.756;2022-10-30T16:01:57;1.52;;;1.23;;
60048;SDS011;45925;45.544;6.756;2022-10-30T16:06:59;2.13;;;1.40;;
60048;SDS011;45925;45.544;6.756;2022-10-30T16:12:03;2.13;;;1.95;;
60048;SDS011;45925;45.544;6.756;2022-10-30T16:17:04;10.13;;;3.77;;
60048;SDS011;45925;45.544;6.756;2022-10-30T16:22:04;6.93;;;4.00;;
60048;SDS011;45925;45.544;6.756;2022-10-30T16:27:17;2.67;;;2.10;;
60048;SDS011;45925;45.544;6.756;2022-10-30T16:32:20;2.63;;;1.38;;
60048;SDS011;45925;45.544;6.756;2022-10-30T16:37:31;2.15;;;1.67;;
60048;SDS011;45925;45.544;6.756;2022-10-30T16:42:34;3.60;;;1.83;;
60048;SDS011;45925;45.544;6.756;2022-10-30T16:47:35;1.53;;;0.80;;
60048;SDS011;45925;45.544;6.756;2022-10-30T16:52:39;2.28;;;1.70;;
60048;SDS011;45925;45.544;6.756;2022-10-30T16:57:41;1.40;;;0.98;;
60048;SDS011;45925;45.544;6.756;2022-10-30T17:02:43;0.77;;;0.60;;
60048;SDS011;45925;45.544;6.756;2022-10-30T17:07:56;0.52;;;0.52;;
60048;SDS011;45925;45.544;6.756;2022-10-30T17:18:35;0.88;;;0.40;;
60048;SDS011;45925;45.544;6.756;2022-10-30T17:23:36;2.67;;;1.70;;
60048;SDS011;45925;45.544;6.756;2022-10-30T17:28:53;1.42;;;0.47;;
60048;SDS011;45925;45.544;6.756;2022-10-30T17:44:18;0.35;;;0.35;;
60048;SDS011;45925;45.544;6.756;2022-10-30T17:49:28;0.85;;;0.57;;
60048;SDS011;45925;45.544;6.756;2022-10-30T17:54:30;1.08;;;0.52;;
60048;SDS011;45925;45.544;6.756;2022-10-30T17:59:37;0.28;;;0.28;;
60048;SDS011;45925;45.544;6.756;2022-10-30T18:04:38;1.10;;;1.00;;
60048;SDS011;45925;45.544;6.756;2022-10-30T18:09:41;0.55;;;0.47;;
60048;SDS011;45925;45.544;6.756;2022-10-30T18:14:42;0.85;;;0.85;;
60048;SDS011;45925;45.544;6.756;2022-10-30T18:19:44;2.05;;;1.95;;
60048;SDS011;45925;45.544;6.756;2022-10-30T18:24:45;0.80;;;0.60;;
60048;SDS011;45925;45.544;6.756;2022-10-30T18:29:45;0.52;;;0.25;;
60048;SDS011;45925;45.544;6.756;2022-10-30T18:34:46;1.38;;;1.27;;
60048;SDS011;45925;45.544;6.756;2022-10-30T18:39:46;0.20;;;0.20;;
60048;SDS011;45925;45.544;6.756;2022-10-30T18:44:47;0.70;;;0.55;;
60048;SDS011;45925;45.544;6.756;2022-10-30T18:49:47;0.70;;;0.70;;
60048;SDS011;45925;45.544;6.756;2022-10-30T18:54:48;0.80;;;0.80;;
60048;SDS011;45925;45.544;6.756;2022-10-30T18:59:48;0.68;;;0.68;;
60048;SDS011;45925;45.544;6.756;2022-10-30T19:04:49;0.20;;;0.20;;
60048;SDS011;45925;45.544;6.756;2022-10-30T19:09:49;0.28;;;0.28;;
60048;SDS011;45925;45.544;6.756;2022-10-30T19:14:50;0.63;;;0.28;;
60048;SDS011;45925;45.544;6.756;2022-10-30T19:19:51;0.10;;;0.10;;
60048;SDS011;45925;45.544;6.756;2022-10-30T19:24:52;0.35;;;0.35;;
60048;SDS011;45925;45.544;6.756;2022-10-30T19:29:52;0.20;;;0.20;;
60048;SDS011;45925;45.544;6.756;2022-10-30T19:34:53;0.40;;;0.40;;
60048;SDS011;45925;45.544;6.756;2022-10-30T19:39:53;0.13;;;0.13;;
60048;SDS011;45925;45.544;6.756;2022-10-30T19:44:54;1.10;;;0.30;;
60048;SDS011;45925;45.544;6.756;2022-10-30T19:49:54;0.10;;;0.10;;
60048;SDS011;45925;45.544;6.756;2022-10-30T19:54:55;1.00;;;0.35;;
60048;SDS011;45925;45.544;6.756;2022-10-30T19:59:55;0.25;;;0.20;;
60048;SDS011;45925;45.544;6.756;2022-10-30T20:04:56;0.73;;;0.73;;
60048;SDS011;45925;45.544;6.756;2022-10-30T20:09:56;0.85;;;0.32;;
60048;SDS011;45925;45.544;6.756;2022-10-30T20:14:57;0.10;;;0.10;;
60048;SDS011;45925;45.544;6.756;2022-10-30T20:19:57;0.40;;;0.40;;
60048;SDS011;45925;45.544;6.756;2022-10-30T20:24:58;0.20;;;0.10;;
60048;SDS011;45925;45.544;6.756;2022-10-30T20:29:59;0.10;;;0.10;;
60048;SDS011;45925;45.544;6.756;2022-10-30T20:34:59;0.00;;;0.00;;
60048;SDS011;45925;45.544;6.756;2022-10-30T20:40:00;0.30;;;0.30;;
60048;SDS011;45925;45.544;6.756;2022-10-30T20:45:00;0.30;;;0.30;;
60048;SDS011;45925;45.544;6.756;2022-10-30T20:50:01;0.88;;;0.20;;
60048;SDS011;45925;45.544;6.756;2022-10-30T20:55:01;0.68;;;0.68;;
60048;SDS011;45925;45.544;6.756;2022-10-30T21:00:03;0.20;;;0.20;;
60048;SDS011;45925;45.544;6.756;2022-10-30T21:05:05;0.20;;;0.20;;
60048;SDS011;45925;45.544;6.756;2022-10-30T21:10:06;0.07;;;0.07;;
60048;SDS011;45925;45.544;6.756;2022-10-30T21:15:07;0.20;;;0.10;;
60048;SDS011;45925;45.544;6.756;2022-10-30T21:20:08;0.20;;;0.20;;
60048;SDS011;45925;45.544;6.756;2022-10-30T21:25:09;0.10;;;0.10;;
60048;SDS011;45925;45.544;6.756;2022-10-30T21:30:10;0.63;;;0.63;;
60048;SDS011;45925;45.544;6.756;2022-10-30T21:35:11;0.10;;;0.10;;
60048;SDS011;45925;45.544;6.756;2022-10-30T21:40:12;0.68;;;0.68;;
60048;SDS011;45925;45.544;6.756;2022-10-30T21:45:12;0.00;;;0.00;;
60048;SDS011;45925;45.544;6.756;2022-10-30T21:50:13;0.10;;;0.10;;
60048;SDS011;45925;45.544;6.756;2022-10-30T21:55:14;0.40;;;0.40;;
60048;SDS011;45925;45.544;6.756;2022-10-30T22:00:14;0.00;;;0.00;;
60048;SDS011;45925;45.544;6.756;2022-10-30T22:05:15;0.98;;;0.80;;
60048;SDS011;45925;45.544;6.756;2022-10-30T22:10:16;0.00;;;0.00;;
60048;SDS011;45925;45.544;6.756;2022-10-30T22:15:16;0.10;;;0.10;;
60048;SDS011;45925;45.544;6.756;2022-10-30T22:20:17;0.05;;;0.05;;
60048;SDS011;45925;45.544;6.756;2022-10-30T22:25:17;0.00;;;0.00;;
60048;SDS011;45925;45.544;6.756;2022-10-30T22:30:18;0.00;;;0.00;;
60048;SDS011;45925;45.544;6.756;2022-10-30T22:35:19;0.05;;;0.05;;
60048;SDS011;45925;45.544;6.756;2022-10-30T22:40:19;0.10;;;0.10;;
60048;SDS011;45925;45.544;6.756;2022-10-30T22:45:20;0.20;;;0.20;;
60048;SDS011;45925;45.544;6.756;2022-10-30T22:50:21;0.00;;;0.00;;
60048;SDS011;45925;45.544;6.756;2022-10-30T22:55:22;0.00;;;0.00;;
60048;SDS011;45925;45.544;6.756;2022-10-30T23:00:25;0.00;;;0.00;;
60048;SDS011;45925;45.544;6.756;2022-10-30T23:05:26;0.17;;;0.17;;
60048;SDS011;45925;45.544;6.756;2022-10-30T23:10:27;0.10;;;0.10;;
60048;SDS011;45925;45.544;6.756;2022-10-30T23:15:28;1.60;;;0.35;;
60048;SDS011;45925;45.544;6.756;2022-10-30T23:20:28;0.43;;;0.43;;
60048;SDS011;45925;45.544;6.756;2022-10-30T23:25:29;1.35;;;1.10;;
60048;SDS011;45925;45.544;6.756;2022-10-30T23:30:29;0.10;;;0.10;;
60048;SDS011;45925;45.544;6.756;2022-10-30T23:35:30;0.00;;;0.00;;
60048;SDS011;45925;45.544;6.756;2022-10-30T23:40:31;0.15;;;0.15;;
60048;SDS011;45925;45.544;6.756;2022-10-30T23:45:31;0.10;;;0.10;;
60048;SDS011;45925;45.544;6.756;2022-10-30T23:50:33;0.00;;;0.00;;
60048;SDS011;45925;45.544;6.756;2022-10-30T23:55:34;0.00;;;0.00;;
